createdAt,value
2023-03-05T00:00:30.756Z,41.37
2023-03-05T00:01:30.784Z,41.37
2023-03-05T00:02:30.937Z,41.37
2023-03-05T00:03:30.922Z,41.37
2023-03-05T00:04:30.846Z,41.37
2023-03-05T00:05:30.821Z,41.37
2023-03-05T00:06:30.832Z,41.37
2023-03-05T00:07:30.851Z,41.37
2023-03-05T00:08:30.890Z,41.37
2023-03-05T00:09:30.900Z,41.37
2023-03-05T00:10:30.873Z,41.27
2023-03-05T00:11:30.895Z,41.27
2023-03-05T00:12:30.920Z,41.37
2023-03-05T00:13:30.948Z,41.37
2023-03-05T00:14:30.976Z,41.37
2023-03-05T00:15:30.990Z,41.37
2023-03-05T00:16:31.026Z,41.37
2023-03-05T00:17:31.041Z,41.27
2023-03-05T00:18:31.063Z,41.37
2023-03-05T00:19:31.340Z,41.37
2023-03-05T00:20:31.093Z,41.27
2023-03-05T00:21:31.109Z,41.27
2023-03-05T00:22:31.130Z,41.37
2023-03-05T00:23:31.141Z,41.37
2023-03-05T00:24:31.155Z,41.37
2023-03-05T00:25:31.196Z,41.27
2023-03-05T00:26:31.164Z,41.37
2023-03-05T00:27:31.177Z,41.37
2023-03-05T00:28:31.207Z,41.37
2023-03-05T00:29:31.816Z,41.37
2023-03-05T00:30:31.213Z,41.37
2023-03-05T00:31:31.442Z,41.37
2023-03-05T00:32:31.307Z,41.37
2023-03-05T00:33:31.257Z,41.27
2023-03-05T00:34:31.288Z,41.37
2023-03-05T00:35:31.312Z,41.27
2023-03-05T00:36:31.292Z,41.27
2023-03-05T00:37:31.310Z,41.37
2023-03-05T00:38:31.323Z,41.27
2023-03-05T00:39:31.391Z,41.37
2023-03-05T00:40:31.485Z,41.37
2023-03-05T00:41:31.426Z,41.37
2023-03-05T00:42:31.411Z,41.47
2023-03-05T00:43:31.432Z,41.47
2023-03-05T00:44:31.452Z,41.37
2023-03-05T00:45:31.466Z,41.37
2023-03-05T00:46:31.499Z,41.37
2023-03-05T00:47:31.494Z,41.27
2023-03-05T00:48:31.473Z,41.37
2023-03-05T00:49:31.499Z,41.37
2023-03-05T00:50:31.508Z,41.37
2023-03-05T00:51:31.537Z,41.37
2023-03-05T00:52:31.555Z,41.37
2023-03-05T00:53:31.587Z,41.37
2023-03-05T00:54:31.868Z,41.37
2023-03-05T00:55:31.616Z,41.37
2023-03-05T00:56:31.646Z,41.37
2023-03-05T00:57:31.656Z,41.37
2023-03-05T00:58:31.636Z,41.27
2023-03-05T00:59:31.660Z,41.37
2023-03-05T01:00:31.680Z,41.37
2023-03-05T01:01:31.777Z,41.27
2023-03-05T01:02:33.787Z,41.37
2023-03-05T01:03:31.755Z,41.37
2023-03-05T01:04:31.738Z,41.37
2023-03-05T01:05:31.786Z,41.37
2023-03-05T01:06:31.706Z,41.27
2023-03-05T01:07:31.729Z,41.27
2023-03-05T01:08:31.758Z,41.37
2023-03-05T01:09:31.778Z,41.27
2023-03-05T01:10:31.775Z,41.37
2023-03-05T01:11:31.794Z,41.37
2023-03-05T01:12:31.819Z,41.27
2023-03-05T01:13:31.861Z,41.37
2023-03-05T01:14:31.849Z,41.27
2023-03-05T01:15:31.856Z,41.37
2023-03-05T01:16:31.893Z,41.27
2023-03-05T01:17:31.886Z,41.37
2023-03-05T01:18:31.900Z,41.27
2023-03-05T01:19:31.921Z,41.37
2023-03-05T01:20:31.942Z,41.27
2023-03-05T01:21:31.948Z,41.37
2023-03-05T01:22:31.935Z,41.37
2023-03-05T01:23:31.950Z,41.37
2023-03-05T01:24:31.987Z,41.37
2023-03-05T01:25:31.963Z,41.37
2023-03-05T01:26:31.977Z,41.37
2023-03-05T01:27:32.009Z,41.37
2023-03-05T01:28:32.021Z,41.37
2023-03-05T01:29:32.075Z,41.37
2023-03-05T01:30:32.048Z,41.37
2023-03-05T01:31:32.117Z,41.37
2023-03-05T01:32:33.630Z,41.37
2023-03-05T01:33:32.074Z,41.37
2023-03-05T01:34:32.105Z,41.37
2023-03-05T01:35:32.139Z,41.37
2023-03-05T01:36:32.079Z,41.37
2023-03-05T01:37:32.096Z,41.37
2023-03-05T01:38:32.119Z,41.27
2023-03-05T01:39:32.116Z,41.37
2023-03-05T01:40:32.085Z,41.27
2023-03-05T01:41:32.111Z,41.37
2023-03-05T01:42:32.128Z,41.27
2023-03-05T01:43:32.156Z,41.37
2023-03-05T01:44:32.183Z,41.27
2023-03-05T01:45:32.298Z,41.37
2023-03-05T01:46:32.206Z,41.27
2023-03-05T01:47:32.177Z,41.37
2023-03-05T01:48:32.195Z,41.27
2023-03-05T01:49:32.230Z,41.37
2023-03-05T01:50:32.255Z,41.37
2023-03-05T01:51:32.284Z,41.37
2023-03-05T01:52:32.315Z,41.37
2023-03-05T01:53:32.327Z,41.37
2023-03-05T01:54:32.347Z,41.37
2023-03-05T01:55:32.368Z,41.37
2023-03-05T01:56:32.384Z,41.37
2023-03-05T01:57:32.367Z,41.37
2023-03-05T01:58:32.380Z,41.37
2023-03-05T01:59:32.411Z,41.37
2023-03-05T02:00:32.422Z,41.37
2023-03-05T02:01:32.558Z,41.37
2023-03-05T02:02:32.449Z,41.27
2023-03-05T02:03:32.465Z,41.37
2023-03-05T02:04:32.507Z,41.37
2023-03-05T02:05:32.491Z,41.37
2023-03-05T02:06:32.500Z,41.37
2023-03-05T02:07:32.517Z,41.37
2023-03-05T02:08:32.525Z,41.37
2023-03-05T02:09:32.808Z,41.37
2023-03-05T02:10:32.551Z,41.37
2023-03-05T02:11:32.572Z,41.27
2023-03-05T02:12:32.577Z,41.37
2023-03-05T02:13:32.604Z,41.37
2023-03-05T02:14:32.622Z,41.27
2023-03-05T02:15:32.642Z,41.37
2023-03-05T02:16:32.686Z,41.37
2023-03-05T02:17:32.680Z,41.37
2023-03-05T02:18:32.656Z,41.37
2023-03-05T02:19:32.697Z,41.37
2023-03-05T02:20:32.667Z,41.37
2023-03-05T02:21:32.680Z,41.37
2023-03-05T02:22:32.671Z,41.37
2023-03-05T02:23:32.691Z,41.27
2023-03-05T02:24:32.728Z,41.37
2023-03-05T02:25:32.695Z,41.37
2023-03-05T02:26:32.937Z,41.37
2023-03-05T02:27:32.718Z,41.37
2023-03-05T02:28:32.740Z,41.37
2023-03-05T02:29:32.771Z,41.27
2023-03-05T02:30:32.780Z,41.37
2023-03-05T02:31:32.852Z,41.37
2023-03-05T02:32:32.960Z,41.37
2023-03-05T02:33:32.856Z,41.37
2023-03-05T02:34:32.828Z,41.37
2023-03-05T02:35:32.833Z,41.27
2023-03-05T02:36:32.835Z,41.27
2023-03-05T02:37:32.847Z,41.37
2023-03-05T02:38:32.873Z,41.37
2023-03-05T02:39:32.897Z,41.37
2023-03-05T02:40:32.874Z,41.37
2023-03-05T02:41:32.899Z,41.37
2023-03-05T02:42:32.915Z,41.37
2023-03-05T02:43:32.938Z,41.37
2023-03-05T02:44:33.217Z,41.37
2023-03-05T02:45:33.012Z,41.37
2023-03-05T02:46:32.981Z,41.27
2023-03-05T02:47:32.997Z,41.37
2023-03-05T02:48:33.045Z,41.37
2023-03-05T02:49:33.030Z,41.37
2023-03-05T02:50:33.018Z,41.27
2023-03-05T02:51:32.988Z,41.37
2023-03-05T02:52:33.017Z,41.27
2023-03-05T02:53:33.000Z,41.37
2023-03-05T02:54:32.979Z,41.37
2023-03-05T02:55:33.002Z,41.27
2023-03-05T02:56:33.017Z,41.37
2023-03-05T02:57:33.054Z,41.27
2023-03-05T02:58:33.051Z,41.27
2023-03-05T02:59:33.095Z,41.37
2023-03-05T03:00:33.082Z,41.37
2023-03-05T03:01:33.184Z,41.37
2023-03-05T03:02:33.147Z,41.37
2023-03-05T03:03:33.217Z,41.37
2023-03-05T03:04:33.155Z,41.37
2023-03-05T03:05:33.196Z,41.37
2023-03-05T03:06:33.163Z,41.27
2023-03-05T03:07:33.190Z,41.37
2023-03-05T03:08:33.212Z,41.37
2023-03-05T03:09:33.226Z,41.37
2023-03-05T03:10:33.254Z,41.47
2023-03-05T03:11:33.264Z,41.47
2023-03-05T03:12:33.309Z,41.47
2023-03-05T03:13:33.285Z,41.47
2023-03-05T03:14:33.307Z,41.47
2023-03-05T03:15:33.350Z,41.47
2023-03-05T03:16:33.398Z,41.47
2023-03-05T03:17:33.351Z,41.47
2023-03-05T03:18:33.367Z,41.47
2023-03-05T03:19:33.391Z,41.47
2023-03-05T03:20:33.415Z,41.47
2023-03-05T03:21:33.464Z,41.47
2023-03-05T03:22:33.451Z,41.47
2023-03-05T03:23:33.418Z,41.47
2023-03-05T03:24:33.439Z,41.37
2023-03-05T03:25:33.462Z,41.37
2023-03-05T03:26:33.477Z,41.47
2023-03-05T03:27:33.509Z,41.47
2023-03-05T03:28:33.538Z,41.47
2023-03-05T03:29:33.550Z,41.47
2023-03-05T03:30:33.595Z,41.47
2023-03-05T03:31:33.579Z,41.47
2023-03-05T03:32:33.678Z,41.47
2023-03-05T03:33:33.616Z,41.47
2023-03-05T03:34:33.619Z,41.47
2023-03-05T03:35:33.679Z,41.47
2023-03-05T03:36:33.637Z,41.37
2023-03-05T03:37:33.705Z,41.47
2023-03-05T03:38:33.687Z,41.47
2023-03-05T03:39:33.708Z,41.57
2023-03-05T03:40:33.732Z,41.47
2023-03-05T03:41:33.745Z,41.47
2023-03-05T03:42:33.769Z,41.47
2023-03-05T03:43:33.800Z,41.47
2023-03-05T03:44:33.821Z,41.47
2023-03-05T03:45:33.830Z,41.47
2023-03-05T03:46:33.960Z,41.47
2023-03-05T03:47:33.860Z,41.47
2023-03-05T03:48:33.890Z,41.57
2023-03-05T03:49:33.910Z,41.47
2023-03-05T03:50:33.928Z,41.37
2023-03-05T03:51:33.941Z,41.47
2023-03-05T03:52:33.967Z,41.37
2023-03-05T03:53:34.027Z,41.37
2023-03-05T03:54:33.998Z,41.47
2023-03-05T03:55:34.028Z,41.47
2023-03-05T03:56:34.041Z,41.47
2023-03-05T03:57:34.075Z,41.47
2023-03-05T03:58:34.103Z,41.47
2023-03-05T03:59:34.122Z,41.57
2023-03-05T04:00:34.139Z,41.47
2023-03-05T04:01:34.158Z,41.47
2023-03-05T04:02:34.227Z,41.47
2023-03-05T04:03:34.191Z,41.47
2023-03-05T04:04:34.289Z,41.47
2023-03-05T04:05:34.226Z,41.57
2023-03-05T04:06:34.246Z,41.47
2023-03-05T04:07:34.286Z,41.47
2023-03-05T04:08:34.268Z,41.47
2023-03-05T04:09:34.313Z,41.47
2023-03-05T04:10:34.275Z,41.47
2023-03-05T04:11:34.301Z,41.27
2023-03-05T04:12:34.323Z,41.37
2023-03-05T04:13:34.308Z,41.47
2023-03-05T04:14:34.325Z,41.37
2023-03-05T04:15:34.352Z,41.57
2023-03-05T04:16:34.367Z,41.37
2023-03-05T04:17:34.387Z,41.37
2023-03-05T04:18:34.404Z,41.37
2023-03-05T04:19:34.416Z,41.37
2023-03-05T04:20:34.437Z,41.47
2023-03-05T04:21:34.463Z,41.47
2023-03-05T04:22:34.443Z,41.47
2023-03-05T04:23:34.455Z,41.47
2023-03-05T04:24:34.482Z,41.47
2023-03-05T04:25:34.528Z,41.47
2023-03-05T04:26:34.502Z,41.37
2023-03-05T04:27:34.514Z,41.47
2023-03-05T04:28:34.548Z,41.47
2023-03-05T04:29:34.534Z,41.37
2023-03-05T04:30:34.556Z,41.47
2023-03-05T04:31:34.673Z,41.47
2023-03-05T04:32:34.716Z,41.47
2023-03-05T04:33:34.592Z,41.47
2023-03-05T04:34:34.639Z,41.47
2023-03-05T04:35:34.674Z,41.47
2023-03-05T04:36:34.631Z,41.47
2023-03-05T04:37:34.652Z,41.47
2023-03-05T04:38:34.678Z,41.47
2023-03-05T04:39:34.729Z,41.47
2023-03-05T04:40:34.715Z,41.47
2023-03-05T04:41:34.751Z,41.47
2023-03-05T04:42:34.715Z,41.47
2023-03-05T04:43:34.730Z,41.37
2023-03-05T04:44:34.775Z,41.37
2023-03-05T04:45:34.797Z,41.37
2023-03-05T04:46:34.815Z,41.47
2023-03-05T04:47:34.811Z,41.47
2023-03-05T04:48:34.826Z,41.47
2023-03-05T04:49:34.872Z,41.47
2023-03-05T04:50:34.839Z,41.47
2023-03-05T04:51:34.865Z,41.47
2023-03-05T04:52:34.886Z,41.47
2023-03-05T04:53:34.916Z,41.57
2023-03-05T04:54:34.942Z,41.47
2023-03-05T04:55:34.921Z,41.47
2023-03-05T04:56:34.952Z,41.47
2023-03-05T04:57:34.996Z,41.47
2023-03-05T04:58:34.967Z,41.57
2023-03-05T04:59:34.988Z,41.37
2023-03-05T05:00:35.015Z,41.47
2023-03-05T05:01:35.139Z,41.47
2023-03-05T05:02:35.100Z,41.47
2023-03-05T05:03:35.078Z,41.47
2023-03-05T05:04:35.101Z,41.37
2023-03-05T05:05:35.155Z,41.37
2023-03-05T05:06:35.118Z,41.37
2023-03-05T05:07:35.144Z,41.37
2023-03-05T05:08:35.128Z,41.27
2023-03-05T05:09:35.151Z,41.47
2023-03-05T05:10:35.150Z,41.47
2023-03-05T05:11:35.166Z,41.47
2023-03-05T05:12:35.202Z,41.47
2023-03-05T05:13:35.220Z,41.47
2023-03-05T05:14:35.159Z,41.47
2023-03-05T05:15:35.188Z,41.47
2023-03-05T05:16:35.290Z,41.47
2023-03-05T05:17:35.244Z,41.47
2023-03-05T05:18:35.287Z,41.47
2023-03-05T05:19:35.407Z,41.47
2023-03-05T05:20:35.314Z,41.47
2023-03-05T05:21:35.337Z,41.37
2023-03-05T05:22:35.345Z,41.47
2023-03-05T05:23:35.371Z,41.37
2023-03-05T05:24:35.396Z,41.47
2023-03-05T05:25:35.408Z,41.47
2023-03-05T05:26:35.442Z,41.47
2023-03-05T05:27:35.455Z,41.47
2023-03-05T05:28:35.469Z,41.47
2023-03-05T05:29:35.532Z,41.47
2023-03-05T05:30:35.516Z,41.47
2023-03-05T05:31:35.562Z,41.47
2023-03-05T05:32:35.529Z,41.47
2023-03-05T05:33:35.529Z,41.47
2023-03-05T05:34:35.575Z,41.47
2023-03-05T05:35:35.637Z,41.47
2023-03-05T05:36:35.564Z,41.47
2023-03-05T05:37:35.595Z,41.47
2023-03-05T05:38:35.605Z,41.47
2023-03-05T05:39:35.636Z,41.47
2023-03-05T05:40:35.615Z,41.47
2023-03-05T05:41:35.857Z,41.47
2023-03-05T05:42:35.635Z,41.47
2023-03-05T05:43:35.656Z,41.47
2023-03-05T05:44:35.688Z,41.47
2023-03-05T05:45:35.849Z,41.47
2023-03-05T05:46:35.855Z,41.47
2023-03-05T05:47:35.740Z,41.47
2023-03-05T05:48:35.722Z,41.37
2023-03-05T05:49:35.736Z,41.47
2023-03-05T05:50:35.755Z,41.47
2023-03-05T05:51:35.744Z,41.47
2023-03-05T05:52:35.759Z,41.47
2023-03-05T05:53:35.771Z,41.47
2023-03-05T05:54:35.808Z,41.37
2023-03-05T05:55:35.814Z,41.47
2023-03-05T05:56:35.836Z,41.57
2023-03-05T05:57:35.865Z,41.47
2023-03-05T05:58:35.874Z,41.47
2023-03-05T05:59:35.899Z,41.47
2023-03-05T06:00:35.876Z,41.47
2023-03-05T06:01:35.988Z,41.57
2023-03-05T06:02:35.969Z,41.37
2023-03-05T06:03:35.929Z,41.47
2023-03-05T06:04:36.040Z,41.57
2023-03-05T06:05:36.018Z,41.47
2023-03-05T06:06:36.009Z,41.57
2023-03-05T06:07:35.977Z,41.47
2023-03-05T06:08:35.990Z,41.47
2023-03-05T06:09:36.015Z,41.47
2023-03-05T06:10:36.030Z,41.47
2023-03-05T06:11:36.055Z,41.47
2023-03-05T06:12:36.074Z,41.47
2023-03-05T06:13:36.099Z,41.47
2023-03-05T06:14:36.146Z,41.47
2023-03-05T06:15:36.128Z,41.47
2023-03-05T06:16:36.307Z,41.37
2023-03-05T06:17:36.204Z,41.47
2023-03-05T06:18:36.214Z,41.47
2023-03-05T06:19:36.248Z,41.47
2023-03-05T06:20:36.233Z,41.47
2023-03-05T06:21:36.231Z,41.47
2023-03-05T06:22:36.212Z,41.47
2023-03-05T06:23:36.239Z,41.37
2023-03-05T06:24:36.226Z,41.47
2023-03-05T06:25:36.268Z,41.47
2023-03-05T06:26:36.265Z,41.47
2023-03-05T06:27:36.293Z,41.47
2023-03-05T06:28:36.309Z,41.47
2023-03-05T06:29:36.333Z,41.47
2023-03-05T06:30:36.384Z,41.47
2023-03-05T06:31:37.433Z,41.37
2023-03-05T06:32:36.419Z,41.47
2023-03-05T06:33:36.405Z,41.47
2023-03-05T06:34:36.381Z,41.47
2023-03-05T06:35:36.424Z,41.47
2023-03-05T06:36:36.408Z,41.27
2023-03-05T06:37:36.430Z,41.47
2023-03-05T06:38:36.447Z,41.47
2023-03-05T06:39:36.470Z,41.47
2023-03-05T06:40:36.459Z,41.37
2023-03-05T06:41:36.460Z,41.47
2023-03-05T06:42:36.447Z,41.47
2023-03-05T06:43:36.448Z,41.47
2023-03-05T06:44:36.479Z,41.37
2023-03-05T06:45:36.517Z,41.37
2023-03-05T06:46:36.459Z,41.47
2023-03-05T06:47:36.489Z,41.27
2023-03-05T06:48:36.538Z,41.47
2023-03-05T06:49:36.553Z,41.47
2023-03-05T06:50:36.529Z,41.37
2023-03-05T06:51:36.550Z,41.47
2023-03-05T06:52:36.572Z,41.47
2023-03-05T06:53:36.596Z,41.39
2023-03-05T06:54:36.630Z,41.47
2023-03-05T06:55:36.648Z,41.47
2023-03-05T06:56:36.700Z,41.47
2023-03-05T06:57:36.685Z,41.47
2023-03-05T06:58:36.724Z,41.47
2023-03-05T06:59:36.716Z,41.47
2023-03-05T07:00:36.700Z,41.47
2023-03-05T07:01:36.868Z,41.37
2023-03-05T07:02:36.720Z,41.47
2023-03-05T07:03:36.975Z,41.37
2023-03-05T07:04:36.731Z,41.47
2023-03-05T07:05:36.739Z,41.37
2023-03-05T07:06:36.723Z,41.27
2023-03-05T07:07:36.756Z,41.47
2023-03-05T07:08:36.764Z,41.37
2023-03-05T07:09:36.754Z,41.47
2023-03-05T07:10:36.787Z,41.17
2023-03-05T07:11:36.820Z,41.37
2023-03-05T07:12:36.805Z,41.37
2023-03-05T07:13:36.844Z,41.37
2023-03-05T07:14:36.860Z,41.37
2023-03-05T07:15:36.869Z,41.37
2023-03-05T07:16:36.871Z,41.37
2023-03-05T07:17:36.907Z,41.17
2023-03-05T07:18:36.913Z,41.37
2023-03-05T07:19:36.887Z,41.27
2023-03-05T07:20:36.911Z,41.27
2023-03-05T07:21:39.574Z,41.37
2023-03-05T07:22:36.959Z,41.27
2023-03-05T07:23:36.989Z,41.27
2023-03-05T07:24:37.013Z,41.27
2023-03-05T07:25:37.039Z,41.27
2023-03-05T07:26:37.067Z,41.17
2023-03-05T07:27:37.094Z,41.27
2023-03-05T07:28:37.128Z,41.37
2023-03-05T07:29:37.107Z,41.37
2023-03-05T07:30:37.188Z,41.27
2023-03-05T07:31:37.153Z,41.27
2023-03-05T07:32:37.175Z,41.27
2023-03-05T07:33:37.315Z,41.27
2023-03-05T07:34:37.172Z,41.17
2023-03-05T07:35:37.192Z,41.06
2023-03-05T07:36:37.181Z,41.17
2023-03-05T07:37:37.222Z,41.27
2023-03-05T07:38:37.227Z,41.27
2023-03-05T07:39:37.225Z,41.06
2023-03-05T07:40:37.251Z,41.17
2023-03-05T07:41:37.286Z,41.06
2023-03-05T07:42:37.425Z,41.05
2023-03-05T07:43:37.316Z,41.06
2023-03-05T07:44:37.341Z,41.05
2023-03-05T07:45:37.377Z,40.95
2023-03-05T07:46:37.508Z,40.84
2023-03-05T07:47:37.380Z,40.84
2023-03-05T07:48:37.415Z,40.84
2023-03-05T07:49:37.632Z,40.75
2023-03-05T07:50:37.427Z,40.75
2023-03-05T07:51:37.464Z,40.84
2023-03-05T07:52:37.525Z,40.84
2023-03-05T07:53:37.534Z,40.64
2023-03-05T07:54:37.591Z,40.75
2023-03-05T07:55:37.520Z,40.64
2023-03-05T07:56:37.545Z,40.84
2023-03-05T07:57:37.533Z,40.75
2023-03-05T07:58:37.538Z,40.64
2023-03-05T07:59:37.521Z,40.75
2023-03-05T08:00:37.544Z,40.64
2023-03-05T08:01:37.575Z,40.55
2023-03-05T08:02:37.639Z,40.75
2023-03-05T08:03:37.615Z,40.64
2023-03-05T08:04:37.637Z,40.64
2023-03-05T08:05:37.658Z,40.75
2023-03-05T08:06:37.692Z,40.75
2023-03-05T08:07:37.727Z,40.75
2023-03-05T08:08:37.756Z,40.64
2023-03-05T08:09:37.765Z,40.55
2023-03-05T08:10:37.742Z,40.64
2023-03-05T08:11:37.731Z,40.62
2023-03-05T08:12:37.765Z,40.62
2023-03-05T08:13:37.765Z,40.42
2023-03-05T08:14:37.791Z,40.53
2023-03-05T08:15:37.878Z,40.53
2023-03-05T08:16:37.808Z,40.22
2023-03-05T08:17:37.789Z,40.42
2023-03-05T08:18:37.785Z,40.42
2023-03-05T08:19:37.767Z,40.33
2023-03-05T08:20:37.795Z,40.33
2023-03-05T08:21:37.818Z,40.33
2023-03-05T08:22:37.839Z,40.33
2023-03-05T08:23:37.871Z,40.22
2023-03-05T08:24:37.902Z,40.22
2023-03-05T08:25:37.948Z,40.33
2023-03-05T08:26:37.922Z,40.22
2023-03-05T08:27:37.943Z,40.22
2023-03-05T08:28:37.928Z,40.33
2023-03-05T08:29:37.928Z,40.33
2023-03-05T08:30:37.914Z,40.33
2023-03-05T08:31:38.063Z,40.33
2023-03-05T08:32:38.258Z,40.33
2023-03-05T08:33:37.972Z,40.42
2023-03-05T08:34:37.995Z,40.33
2023-03-05T08:35:38.070Z,40.33
2023-03-05T08:36:38.033Z,40.22
2023-03-05T08:37:38.066Z,40.42
2023-03-05T08:38:38.115Z,40.22
2023-03-05T08:39:38.109Z,40.42
2023-03-05T08:40:38.100Z,40.33
2023-03-05T08:41:38.147Z,40.33
2023-03-05T08:42:38.140Z,40.42
2023-03-05T08:43:38.136Z,40.33
2023-03-05T08:44:38.157Z,40.33
2023-03-05T08:45:38.146Z,40.33
2023-03-05T08:46:38.195Z,40.33
2023-03-05T08:47:38.200Z,40.22
2023-03-05T08:48:38.216Z,40.33
2023-03-05T08:49:38.236Z,40.33
2023-03-05T08:50:39.025Z,40.22
2023-03-05T08:51:38.240Z,40.33
2023-03-05T08:52:38.280Z,40.22
2023-03-05T08:53:38.296Z,40.22
2023-03-05T08:54:38.318Z,40.12
2023-03-05T08:55:38.312Z,40.12
2023-03-05T08:56:38.337Z,40.22
2023-03-05T08:57:38.390Z,40.22
2023-03-05T08:58:38.387Z,40.22
2023-03-05T08:59:38.371Z,40.22
2023-03-05T09:00:38.395Z,40.02
2023-03-05T09:01:38.440Z,40.12
2023-03-05T09:02:38.426Z,40.22
2023-03-05T09:03:38.396Z,40.22
2023-03-05T09:04:38.655Z,40.22
2023-03-05T09:05:39.216Z,40.22
2023-03-05T09:06:38.444Z,40.12
2023-03-05T09:07:38.496Z,40.12
2023-03-05T09:08:38.483Z,40.12
2023-03-05T09:09:38.509Z,40.20
2023-03-05T09:10:38.549Z,40.12
2023-03-05T09:11:38.564Z,40.11
2023-03-05T09:12:38.598Z,40.12
2023-03-05T09:13:38.643Z,40.00
2023-03-05T09:14:38.628Z,40.02
2023-03-05T09:15:38.616Z,40.02
2023-03-05T09:16:38.683Z,40.12
2023-03-05T09:17:38.618Z,40.12
2023-03-05T09:18:38.640Z,39.92
2023-03-05T09:19:38.668Z,40.12
2023-03-05T09:20:38.703Z,40.02
2023-03-05T09:21:38.722Z,40.22
2023-03-05T09:22:38.764Z,40.12
2023-03-05T09:23:38.786Z,40.02
2023-03-05T09:24:38.809Z,40.22
2023-03-05T09:25:38.834Z,40.22
2023-03-05T09:26:38.871Z,40.00
2023-03-05T09:27:38.854Z,40.00
2023-03-05T09:28:38.844Z,39.90
2023-03-05T09:29:40.369Z,40.00
2023-03-05T09:30:38.883Z,40.00
2023-03-05T09:31:39.058Z,40.00
2023-03-05T09:32:38.924Z,39.90
2023-03-05T09:33:38.914Z,40.00
2023-03-05T09:34:38.942Z,40.00
2023-03-05T09:35:38.997Z,40.00
2023-03-05T09:36:38.973Z,40.00
2023-03-05T09:37:38.997Z,39.90
2023-03-05T09:38:39.031Z,39.80
2023-03-05T09:39:39.009Z,40.00
2023-03-05T09:40:38.996Z,39.90
2023-03-05T09:41:39.039Z,39.90
2023-03-05T09:42:39.060Z,39.60
2023-03-05T09:43:39.103Z,39.80
2023-03-05T09:44:39.118Z,39.70
2023-03-05T09:45:39.229Z,39.80
2023-03-05T09:46:39.238Z,39.80
2023-03-05T09:47:39.175Z,39.80
2023-03-05T09:48:39.197Z,39.80
2023-03-05T09:49:39.200Z,39.80
2023-03-05T09:50:39.176Z,39.70
2023-03-05T09:51:39.210Z,39.80
2023-03-05T09:52:39.246Z,39.70
2023-03-05T09:53:39.230Z,39.60
2023-03-05T09:54:39.253Z,39.70
2023-03-05T09:55:39.242Z,39.60
2023-03-05T09:56:39.278Z,39.70
2023-03-05T09:57:39.307Z,39.70
2023-03-05T09:58:39.328Z,39.69
2023-03-05T09:59:39.309Z,39.69
2023-03-05T10:00:39.358Z,39.58
2023-03-05T10:01:39.369Z,39.38
2023-03-05T10:02:39.403Z,39.38
2023-03-05T10:03:39.412Z,39.48
2023-03-05T10:04:39.362Z,39.38
2023-03-05T10:05:39.398Z,39.38
2023-03-05T10:06:39.419Z,39.38
2023-03-05T10:07:39.421Z,39.28
2023-03-05T10:08:39.405Z,39.28
2023-03-05T10:09:39.449Z,39.28
2023-03-05T10:10:39.476Z,39.28
2023-03-05T10:11:39.463Z,39.38
2023-03-05T10:12:39.497Z,39.18
2023-03-05T10:13:39.484Z,39.38
2023-03-05T10:14:39.510Z,38.98
2023-03-05T10:15:39.548Z,39.48
2023-03-05T10:16:39.606Z,39.48
2023-03-05T10:17:39.578Z,39.28
2023-03-05T10:18:39.515Z,39.38
2023-03-05T10:19:39.552Z,38.98
2023-03-05T10:20:39.568Z,39.48
2023-03-05T10:21:40.326Z,39.28
2023-03-05T10:22:39.558Z,39.48
2023-03-05T10:23:39.546Z,39.18
2023-03-05T10:24:39.567Z,39.48
2023-03-05T10:25:39.613Z,39.58
2023-03-05T10:26:39.636Z,39.18
2023-03-05T10:27:39.684Z,39.38
2023-03-05T10:28:39.660Z,39.38
2023-03-05T10:29:39.658Z,39.18
2023-03-05T10:30:39.694Z,39.38
2023-03-05T10:31:39.760Z,39.58
2023-03-05T10:32:39.792Z,39.48
2023-03-05T10:33:39.821Z,39.38
2023-03-05T10:34:39.801Z,39.18
2023-03-05T10:35:39.889Z,39.48
2023-03-05T10:36:39.846Z,39.48
2023-03-05T10:37:39.897Z,39.48
2023-03-05T10:38:39.885Z,39.48
2023-03-05T10:39:39.865Z,39.38
2023-03-05T10:40:39.864Z,39.38
2023-03-05T10:41:39.893Z,39.18
2023-03-05T10:42:39.881Z,39.48
2023-03-05T10:43:39.903Z,39.69
2023-03-05T10:44:39.922Z,39.58
2023-03-05T10:45:39.997Z,39.18
2023-03-05T10:46:39.974Z,39.38
2023-03-05T10:47:40.027Z,39.28
2023-03-05T10:48:40.021Z,39.48
2023-03-05T10:49:40.070Z,39.48
2023-03-05T10:50:40.046Z,39.28
2023-03-05T10:51:40.031Z,39.28
2023-03-05T10:52:40.073Z,39.18
2023-03-05T10:53:40.058Z,39.18
2023-03-05T10:54:40.036Z,39.38
2023-03-05T10:55:40.062Z,39.38
2023-03-05T10:56:40.086Z,39.38
2023-03-05T10:57:40.118Z,39.38
2023-03-05T10:58:40.142Z,39.08
2023-03-05T10:59:40.165Z,39.18
2023-03-05T11:00:40.203Z,39.28
2023-03-05T11:01:40.273Z,39.18
2023-03-05T11:02:40.270Z,39.18
2023-03-05T11:03:40.208Z,39.18
2023-03-05T11:04:40.229Z,39.08
2023-03-05T11:05:40.308Z,39.08
2023-03-05T11:06:40.293Z,39.18
2023-03-05T11:07:40.324Z,39.08
2023-03-05T11:08:40.315Z,38.98
2023-03-05T11:09:40.337Z,39.08
2023-03-05T11:10:40.366Z,39.08
2023-03-05T11:11:40.368Z,39.06
2023-03-05T11:12:40.373Z,38.76
2023-03-05T11:13:40.362Z,38.96
2023-03-05T11:14:40.398Z,38.88
2023-03-05T11:15:40.468Z,38.88
2023-03-05T11:16:40.408Z,38.68
2023-03-05T11:17:40.404Z,39.18
2023-03-05T11:18:40.394Z,38.76
2023-03-05T11:19:40.432Z,38.96
2023-03-05T11:20:40.462Z,39.06
2023-03-05T11:21:40.517Z,38.86
2023-03-05T11:22:40.511Z,39.06
2023-03-05T11:23:40.503Z,38.96
2023-03-05T11:24:40.524Z,38.86
2023-03-05T11:25:40.558Z,38.76
2023-03-05T11:26:40.544Z,38.86
2023-03-05T11:27:40.568Z,38.96
2023-03-05T11:28:40.603Z,38.86
2023-03-05T11:29:40.626Z,38.76
2023-03-05T11:30:40.744Z,38.96
2023-03-05T11:31:40.685Z,38.96
2023-03-05T11:32:40.702Z,39.06
2023-03-05T11:33:40.676Z,38.96
2023-03-05T11:34:40.712Z,38.76
2023-03-05T11:35:40.780Z,38.76
2023-03-05T11:36:40.723Z,38.76
2023-03-05T11:37:40.772Z,38.86
2023-03-05T11:38:40.764Z,38.76
2023-03-05T11:39:40.770Z,38.76
2023-03-05T11:40:40.749Z,38.76
2023-03-05T11:41:40.788Z,38.86
2023-03-05T11:42:40.772Z,38.96
2023-03-05T11:43:40.760Z,38.96
2023-03-05T11:44:40.795Z,38.86
2023-03-05T11:45:40.830Z,38.76
2023-03-05T11:46:40.861Z,38.66
2023-03-05T11:47:40.833Z,38.86
2023-03-05T11:48:40.885Z,38.66
2023-03-05T11:49:40.874Z,38.76
2023-03-05T11:50:40.901Z,38.86
2023-03-05T11:51:40.921Z,38.86
2023-03-05T11:52:40.907Z,38.66
2023-03-05T11:53:41.235Z,38.86
2023-03-05T11:54:40.939Z,39.06
2023-03-05T11:55:40.921Z,38.78
2023-03-05T11:56:40.948Z,38.96
2023-03-05T11:57:40.963Z,38.86
2023-03-05T11:58:40.937Z,38.86
2023-03-05T11:59:40.963Z,38.76
2023-03-05T12:00:40.956Z,38.46
2023-03-05T12:01:40.975Z,38.86
2023-03-05T12:02:41.082Z,38.76
2023-03-05T12:03:41.057Z,38.56
2023-03-05T12:04:41.033Z,38.96
2023-03-05T12:05:41.064Z,39.06
2023-03-05T12:06:41.089Z,38.86
2023-03-05T12:07:41.113Z,38.76
2023-03-05T12:08:41.146Z,38.88
2023-03-05T12:09:41.188Z,39.08
2023-03-05T12:10:41.116Z,39.06
2023-03-05T12:11:41.157Z,39.08
2023-03-05T12:12:41.180Z,38.98
2023-03-05T12:13:43.040Z,39.08
2023-03-05T12:14:41.214Z,39.08
2023-03-05T12:15:41.230Z,38.98
2023-03-05T12:16:41.521Z,38.96
2023-03-05T12:17:41.285Z,39.08
2023-03-05T12:18:41.319Z,39.16
2023-03-05T12:19:41.310Z,39.06
2023-03-05T12:20:41.896Z,38.96
2023-03-05T12:21:41.351Z,38.98
2023-03-05T12:22:41.958Z,38.88
2023-03-05T12:23:41.411Z,39.08
2023-03-05T12:24:41.423Z,38.98
2023-03-05T12:25:41.716Z,39.08
2023-03-05T12:26:41.898Z,39.18
2023-03-05T12:27:41.476Z,39.08
2023-03-05T12:28:41.803Z,38.88
2023-03-05T12:29:41.505Z,39.08
2023-03-05T12:30:41.498Z,39.08
2023-03-05T12:31:41.891Z,38.98
2023-03-05T12:32:41.858Z,38.98
2023-03-05T12:33:41.537Z,38.86
2023-03-05T12:34:41.822Z,39.06
2023-03-05T12:35:41.568Z,38.76
2023-03-05T12:36:41.670Z,38.76
2023-03-05T12:37:41.575Z,38.86
2023-03-05T12:38:41.600Z,38.76
2023-03-05T12:39:41.827Z,38.86
2023-03-05T12:40:41.640Z,38.66
2023-03-05T12:41:41.833Z,38.66
2023-03-05T12:42:41.636Z,38.86
2023-03-05T12:43:41.674Z,38.86
2023-03-05T12:44:41.705Z,38.66
2023-03-05T12:45:41.696Z,38.86
2023-03-05T12:46:41.742Z,38.86
2023-03-05T12:47:41.752Z,38.76
2023-03-05T12:48:41.853Z,38.66
2023-03-05T12:49:41.796Z,38.46
2023-03-05T12:50:41.810Z,38.26
2023-03-05T12:51:41.833Z,38.56
2023-03-05T12:52:41.853Z,38.76